Los Angeles AFB, California
Current Conditions -  °F | °C
As of 9:53 PM on Tuesday 21 Oct 2014 (Local Time) from KLAX Reporting Station
Clear Clear  
Wind Chill: 68°   Ceiling: Unl
Heat Index: 68°   Visibility: 10mi
Dew Point: 62°   Wind: 0mph
Humidity: 81%   Direction: NA
Pressure: 29.87"   Gusts: NA
Location:  33.9451°N, 118.383°W
Report Text: KLAX 220453Z 00000KT 10SM CLR 20/17 A2987 RMK AO2 SLP113 T02000167 $
Loading
Personal Weather Stations






























Interactive Weather Map
Tropical Storm Tracking
New forecast layout! Learn more

10-Day Weather Forecast

Advertisements
Track Severe Weather on mobile